createdAt,value
2018-05-27T00:00:46.916Z,24.80
2018-05-27T00:03:14.373Z,24.60
2018-05-27T00:05:41.837Z,24.50
2018-05-27T00:08:09.328Z,24.60
2018-05-27T00:10:37.723Z,24.80
2018-05-27T00:13:05.956Z,24.50
2018-05-27T00:15:33.417Z,24.50
2018-05-27T00:18:01.030Z,24.40
2018-05-27T00:20:28.480Z,24.50
2018-05-27T00:22:55.924Z,24.00
2018-05-27T00:25:23.388Z,23.70
2018-05-27T00:27:50.847Z,24.00
2018-05-27T00:30:18.329Z,24.50
2018-05-27T00:32:45.808Z,24.50
2018-05-27T00:35:13.272Z,24.10
2018-05-27T00:37:40.725Z,24.00
2018-05-27T00:40:08.954Z,23.60
2018-05-27T00:42:36.474Z,23.60
2018-05-27T00:45:03.949Z,23.60
2018-05-27T00:47:32.171Z,23.70
2018-05-27T00:49:59.726Z,23.70
2018-05-27T00:52:27.905Z,23.70
2018-05-27T00:54:55.380Z,23.70
2018-05-27T00:57:22.878Z,23.80
2018-05-27T00:59:50.434Z,23.60
2018-05-27T01:02:17.992Z,23.60
2018-05-27T01:04:45.461Z,23.70
2018-05-27T01:07:12.922Z,23.40
2018-05-27T01:09:40.485Z,23.00
2018-05-27T01:12:07.960Z,23.20
2018-05-27T01:14:36.177Z,23.80
2018-05-27T01:17:05.155Z,23.70
2018-05-27T01:19:33.388Z,23.80
2018-05-27T01:22:00.859Z,23.80
2018-05-27T01:24:28.336Z,23.70
2018-05-27T01:26:56.560Z,23.80
2018-05-27T01:29:24.075Z,23.80
2018-05-27T01:31:52.308Z,23.10
2018-05-27T01:34:19.812Z,23.10
2018-05-27T01:36:47.384Z,23.40
2018-05-27T01:39:16.361Z,23.80
2018-05-27T01:41:43.821Z,23.80
2018-05-27T01:44:11.288Z,23.30
2018-05-27T01:46:38.759Z,22.90
2018-05-27T01:49:06.229Z,23.10
2018-05-27T01:51:34.465Z,22.90
2018-05-27T01:54:01.947Z,22.80
2018-05-27T01:56:29.410Z,22.60
2018-05-27T01:58:56.877Z,22.60
2018-05-27T02:01:24.348Z,22.60
2018-05-27T02:03:51.896Z,22.60
2018-05-27T02:06:19.361Z,22.30
2018-05-27T02:08:46.830Z,22.20
2018-05-27T02:11:14.292Z,22.80
2018-05-27T02:13:41.774Z,22.60
2018-05-27T02:16:10.745Z,22.10
2018-05-27T02:18:38.205Z,22.20
2018-05-27T02:21:05.776Z,22.00
2018-05-27T02:23:33.348Z,22.20
2018-05-27T02:26:01.591Z,22.00
2018-05-27T02:28:29.825Z,22.20
2018-05-27T02:30:57.296Z,22.20
2018-05-27T02:33:25.537Z,21.90
2018-05-27T02:35:53.002Z,21.90
2018-05-27T02:38:20.489Z,21.50
2018-05-27T02:40:48.782Z,22.00
2018-05-27T02:43:17.039Z,21.50
2018-05-27T02:45:44.606Z,21.50
2018-05-27T02:48:12.058Z,21.60
2018-05-27T02:50:39.531Z,21.80
2018-05-27T02:53:07.001Z,22.00
2018-05-27T02:55:35.965Z,22.20
2018-05-27T02:58:03.420Z,22.20
2018-05-27T03:00:30.891Z,22.40
2018-05-27T03:02:58.471Z,22.60
2018-05-27T03:05:26.036Z,22.40
2018-05-27T03:07:53.613Z,22.20
2018-05-27T03:10:21.161Z,22.30
2018-05-27T03:12:48.631Z,22.30
2018-05-27T03:15:16.101Z,22.40
2018-05-27T03:17:43.574Z,22.50
2018-05-27T03:20:11.813Z,22.00
2018-05-27T03:22:39.259Z,22.00
2018-05-27T03:25:06.757Z,22.30
2018-05-27T03:27:34.212Z,22.20
2018-05-27T03:30:02.009Z,22.40
2018-05-27T03:32:29.603Z,22.20
2018-05-27T03:34:57.103Z,22.00
2018-05-27T03:37:24.580Z,22.00
2018-05-27T03:39:52.057Z,22.10
2018-05-27T03:42:19.517Z,22.30
2018-05-27T03:44:46.992Z,22.10
2018-05-27T03:47:15.245Z,21.60
2018-05-27T03:49:44.245Z,21.10
2018-05-27T03:52:11.710Z,21.10
2018-05-27T03:54:39.971Z,20.80
2018-05-27T03:57:07.433Z,20.80
2018-05-27T03:59:34.889Z,21.00
2018-05-27T04:02:02.466Z,21.00
2018-05-27T04:07:46.139Z,20.80
2018-05-27T04:10:14.390Z,20.40
2018-05-27T04:12:41.884Z,20.40
2018-05-27T04:15:10.157Z,21.00
2018-05-27T04:17:38.433Z,20.70
2018-05-27T04:20:06.668Z,20.70
2018-05-27T04:22:34.125Z,20.70
2018-05-27T04:25:01.622Z,21.00
2018-05-27T04:27:29.086Z,20.80
2018-05-27T04:29:56.570Z,20.70
2018-05-27T04:32:24.817Z,20.40
2018-05-27T04:34:52.269Z,20.30
2018-05-27T04:37:19.837Z,20.30
2018-05-27T04:39:47.398Z,20.20
2018-05-27T04:42:14.863Z,20.70
2018-05-27T04:44:42.319Z,20.70
2018-05-27T04:47:09.813Z,20.90
2018-05-27T04:49:38.073Z,21.00
2018-05-27T04:52:05.545Z,20.90
2018-05-27T04:54:33.109Z,20.80
2018-05-27T04:57:00.658Z,20.70
2018-05-27T04:59:28.127Z,20.70
2018-05-27T05:01:56.400Z,20.80
2018-05-27T05:04:23.877Z,20.90
2018-05-27T05:06:51.349Z,20.40
2018-05-27T05:09:20.295Z,20.90
2018-05-27T05:11:47.773Z,20.80
2018-05-27T05:14:15.257Z,20.90
2018-05-27T05:16:43.493Z,21.20
2018-05-27T05:19:10.996Z,21.20
2018-05-27T05:21:38.464Z,21.20
2018-05-27T05:24:05.925Z,20.80
2018-05-27T05:26:33.480Z,20.60
2018-05-27T05:29:00.953Z,20.60
2018-05-27T05:31:29.188Z,20.70
2018-05-27T05:33:56.686Z,20.70
2018-05-27T05:36:24.200Z,20.60
2018-05-27T05:38:52.407Z,20.60
2018-05-27T05:41:19.870Z,20.60
2018-05-27T05:43:47.356Z,20.70
2018-05-27T05:46:14.787Z,20.80
2018-05-27T05:48:42.248Z,20.70
2018-05-27T05:51:09.740Z,20.80
2018-05-27T05:53:37.198Z,20.70
2018-05-27T05:56:04.656Z,20.60
2018-05-27T05:58:32.120Z,20.80
2018-05-27T06:00:59.578Z,20.60
2018-05-27T06:03:27.049Z,20.70
2018-05-27T06:05:56.025Z,20.80
2018-05-27T06:08:25.868Z,20.80
2018-05-27T06:10:53.334Z,20.80
2018-05-27T06:13:22.290Z,20.80
2018-05-27T06:15:49.744Z,20.80
2018-05-27T06:18:17.202Z,20.70
2018-05-27T06:20:44.663Z,20.60
2018-05-27T06:23:12.109Z,20.90
2018-05-27T06:25:39.669Z,20.90
2018-05-27T06:28:07.081Z,21.00
2018-05-27T06:30:34.556Z,20.80
2018-05-27T06:33:03.545Z,20.90
2018-05-27T06:35:31.015Z,20.90
2018-05-27T06:37:58.489Z,20.90
2018-05-27T06:40:26.025Z,21.20
2018-05-27T06:42:53.501Z,21.00
2018-05-27T06:45:20.949Z,21.00
2018-05-27T06:47:48.517Z,21.10
2018-05-27T06:50:15.985Z,21.10
2018-05-27T06:52:44.230Z,21.20
2018-05-27T06:55:11.686Z,21.10
2018-05-27T06:57:39.145Z,21.20
2018-05-27T07:00:06.613Z,21.30
2018-05-27T07:02:34.112Z,21.40
2018-05-27T07:05:01.602Z,21.40
2018-05-27T07:07:29.850Z,21.40
2018-05-27T07:09:57.425Z,21.40
2018-05-27T07:12:26.407Z,21.30
2018-05-27T07:14:55.928Z,21.30
2018-05-27T07:17:23.386Z,21.40
2018-05-27T07:19:50.941Z,21.50
2018-05-27T07:22:18.399Z,21.60
2018-05-27T07:24:45.981Z,21.50
2018-05-27T07:27:15.489Z,21.50
2018-05-27T07:29:44.464Z,21.50
2018-05-27T07:32:11.990Z,21.50
2018-05-27T07:34:39.409Z,21.70
2018-05-27T07:37:06.972Z,21.80
2018-05-27T07:39:34.436Z,21.90
2018-05-27T07:42:01.908Z,22.00
2018-05-27T07:44:30.115Z,22.20
2018-05-27T07:46:57.607Z,22.20
2018-05-27T07:49:25.074Z,22.20
2018-05-27T07:51:52.520Z,22.30
2018-05-27T07:54:19.986Z,22.30
2018-05-27T07:56:47.435Z,22.40
2018-05-27T07:59:14.900Z,22.40
2018-05-27T08:01:42.409Z,22.60
2018-05-27T08:04:09.823Z,22.70
2018-05-27T08:06:37.282Z,22.80
2018-05-27T08:09:04.749Z,22.80
2018-05-27T08:11:32.234Z,22.90
2018-05-27T08:13:59.830Z,23.10
2018-05-27T08:16:27.372Z,23.10
2018-05-27T08:18:54.838Z,23.10
2018-05-27T08:21:22.972Z,23.20
2018-05-27T08:23:50.467Z,23.20
2018-05-27T08:26:17.932Z,23.30
2018-05-27T08:28:45.382Z,23.40
2018-05-27T08:31:12.852Z,23.40
2018-05-27T08:33:40.324Z,23.40
2018-05-27T08:36:07.818Z,23.50
2018-05-27T08:38:36.070Z,23.70
2018-05-27T08:41:03.543Z,23.70
2018-05-27T08:43:31.858Z,23.90
2018-05-27T08:46:00.085Z,23.80
2018-05-27T08:48:27.661Z,23.70
2018-05-27T08:50:55.107Z,23.80
2018-05-27T08:53:22.601Z,23.80
2018-05-27T08:55:50.041Z,23.80
2018-05-27T08:58:17.557Z,23.80
2018-05-27T09:00:45.568Z,23.80
2018-05-27T09:03:13.050Z,23.80
2018-05-27T09:05:40.513Z,23.90
2018-05-27T09:08:07.982Z,23.90
2018-05-27T09:10:36.250Z,24.00
2018-05-27T09:13:03.833Z,24.00
2018-05-27T09:15:32.064Z,24.20
2018-05-27T09:17:59.515Z,24.20
2018-05-27T09:20:27.945Z,24.50
2018-05-27T09:22:56.934Z,24.50
2018-05-27T09:25:24.505Z,24.50
2018-05-27T09:27:51.976Z,24.60
2018-05-27T09:30:19.439Z,24.70
2018-05-27T09:32:48.068Z,24.80
2018-05-27T09:35:15.582Z,24.70
2018-05-27T09:37:43.053Z,24.80
2018-05-27T09:40:11.289Z,24.70
2018-05-27T09:42:38.743Z,24.70
2018-05-27T09:45:06.252Z,24.90
2018-05-27T09:47:35.243Z,24.70
2018-05-27T09:50:02.719Z,24.70
2018-05-27T09:52:30.174Z,24.80
2018-05-27T09:54:58.413Z,25.10
2018-05-27T09:57:25.911Z,25.10
2018-05-27T09:59:53.412Z,24.90
2018-05-27T10:02:21.636Z,25.00
2018-05-27T10:04:49.118Z,24.90
2018-05-27T10:07:16.585Z,24.80
2018-05-27T10:09:44.031Z,24.80
2018-05-27T10:12:11.595Z,24.80
2018-05-27T10:14:39.075Z,24.80
2018-05-27T10:17:07.316Z,24.90
2018-05-27T10:19:34.784Z,24.90
2018-05-27T10:22:02.259Z,24.90
2018-05-27T10:24:29.744Z,25.10
2018-05-27T10:26:57.207Z,25.30
2018-05-27T10:29:25.465Z,25.20
2018-05-27T10:31:53.038Z,25.20
2018-05-27T10:34:20.517Z,25.30
2018-05-27T10:36:47.977Z,25.30
2018-05-27T10:39:16.421Z,25.20
2018-05-27T10:41:43.872Z,25.30
2018-05-27T10:44:11.359Z,25.10
2018-05-27T10:46:38.837Z,25.10
2018-05-27T10:49:06.287Z,25.20
2018-05-27T10:51:33.857Z,25.10
2018-05-27T10:54:01.320Z,25.20
2018-05-27T10:56:28.771Z,25.30
2018-05-27T10:58:56.344Z,25.30
2018-05-27T11:01:23.801Z,25.20
2018-05-27T11:03:51.291Z,25.40
2018-05-27T11:06:19.523Z,25.10
2018-05-27T11:08:46.980Z,25.10
2018-05-27T11:11:14.485Z,25.10
2018-05-27T11:13:41.946Z,25.10
2018-05-27T11:16:09.413Z,25.20
2018-05-27T11:18:36.964Z,25.00
2018-05-27T11:21:04.536Z,25.20
2018-05-27T11:23:32.037Z,25.40
2018-05-27T11:25:59.494Z,25.70
2018-05-27T11:28:27.842Z,25.70
2018-05-27T11:30:56.059Z,25.70
2018-05-27T11:33:23.528Z,25.70
2018-05-27T11:35:51.006Z,25.70
2018-05-27T11:38:18.493Z,25.80
2018-05-27T11:40:45.953Z,25.90
2018-05-27T11:43:13.422Z,25.90
2018-05-27T11:45:40.878Z,25.90
2018-05-27T11:48:08.454Z,25.90
2018-05-27T11:50:36.077Z,25.90
2018-05-27T11:53:03.574Z,25.70
2018-05-27T11:55:31.033Z,25.80
2018-05-27T11:57:58.520Z,25.90
2018-05-27T12:00:26.076Z,25.80
2018-05-27T12:02:54.317Z,25.90
2018-05-27T12:05:21.843Z,25.80
2018-05-27T12:07:50.060Z,25.80
2018-05-27T12:10:17.523Z,25.80
2018-05-27T12:12:44.987Z,25.90
2018-05-27T12:15:12.455Z,25.80
2018-05-27T12:17:39.937Z,25.60
2018-05-27T12:20:07.502Z,25.70
2018-05-27T12:22:35.781Z,25.80
2018-05-27T12:25:03.272Z,25.70
2018-05-27T12:27:31.519Z,25.30
2018-05-27T12:29:59.025Z,25.30
2018-05-27T12:32:26.477Z,25.30
2018-05-27T12:34:53.943Z,25.80
2018-05-27T12:37:22.178Z,25.60
2018-05-27T12:39:49.922Z,25.60
2018-05-27T12:42:17.388Z,25.60
2018-05-27T12:44:44.888Z,25.50
2018-05-27T12:47:12.347Z,25.60
2018-05-27T12:49:39.793Z,25.60
2018-05-27T12:52:07.262Z,25.50
2018-05-27T12:54:34.761Z,25.30
2018-05-27T12:57:03.332Z,25.60
2018-05-27T12:59:30.759Z,25.60
2018-05-27T13:01:58.258Z,25.60
2018-05-27T13:04:26.490Z,25.80
2018-05-27T13:06:54.007Z,25.80
2018-05-27T13:09:21.464Z,25.80
2018-05-27T13:11:50.438Z,25.80
2018-05-27T13:14:17.906Z,25.80
2018-05-27T13:16:45.490Z,25.90
2018-05-27T13:19:12.852Z,26.10
2018-05-27T13:21:41.093Z,25.90
2018-05-27T13:24:08.601Z,25.90
2018-05-27T13:26:36.066Z,25.90
2018-05-27T13:29:04.301Z,26.00
2018-05-27T13:31:31.763Z,26.00
2018-05-27T13:33:59.251Z,26.20
2018-05-27T13:36:26.815Z,26.30
2018-05-27T13:38:55.774Z,26.50
2018-05-27T13:41:23.276Z,26.50
2018-05-27T13:43:50.732Z,26.60
2018-05-27T13:46:18.189Z,26.50
2018-05-27T13:48:45.667Z,26.50
2018-05-27T13:51:13.916Z,26.70
2018-05-27T13:53:41.502Z,26.60
2018-05-27T13:56:09.065Z,26.70
2018-05-27T13:58:36.533Z,26.70
2018-05-27T14:01:04.776Z,26.70
2018-05-27T14:03:32.646Z,26.70
2018-05-27T14:06:00.109Z,26.70
2018-05-27T14:08:27.563Z,26.80
2018-05-27T14:10:55.017Z,26.80
2018-05-27T14:13:22.491Z,26.90
2018-05-27T14:15:50.051Z,26.90
2018-05-27T14:18:17.490Z,27.00
2018-05-27T14:20:45.717Z,27.00
2018-05-27T14:23:13.202Z,26.90
2018-05-27T14:25:41.462Z,27.10
2018-05-27T14:28:08.930Z,27.00
2018-05-27T14:30:36.432Z,27.10
2018-05-27T14:33:03.961Z,27.10
2018-05-27T14:35:31.436Z,27.10
2018-05-27T14:37:58.898Z,27.10
2018-05-27T14:40:27.123Z,27.30
2018-05-27T14:42:54.632Z,27.20
2018-05-27T14:45:22.110Z,27.40
2018-05-27T14:47:49.592Z,27.40
2018-05-27T14:50:17.854Z,27.20
2018-05-27T14:52:46.085Z,26.30
2018-05-27T14:55:13.541Z,26.30
2018-05-27T14:57:41.008Z,25.90
2018-05-27T15:00:08.513Z,25.80
2018-05-27T15:02:35.985Z,25.60
2018-05-27T15:05:03.435Z,25.60
2018-05-27T15:07:31.671Z,26.00
2018-05-27T15:10:00.597Z,26.00
2018-05-27T15:12:28.073Z,26.00
2018-05-27T15:14:57.044Z,26.10
2018-05-27T15:17:24.558Z,26.00
2018-05-27T15:19:52.811Z,26.20
2018-05-27T15:22:20.272Z,26.20
2018-05-27T15:24:47.738Z,26.30
2018-05-27T15:27:15.968Z,25.90
2018-05-27T15:29:43.416Z,25.80
2018-05-27T15:32:10.930Z,25.70
2018-05-27T15:34:38.353Z,25.40
2018-05-27T15:37:05.815Z,25.30
2018-05-27T15:39:33.272Z,25.30
2018-05-27T15:42:00.753Z,25.40
2018-05-27T15:44:28.199Z,25.40
2018-05-27T15:46:55.670Z,25.60
2018-05-27T15:49:23.165Z,25.60
2018-05-27T15:51:50.636Z,25.50
2018-05-27T15:54:18.201Z,25.20
2018-05-27T15:56:47.166Z,25.20
2018-05-27T15:59:14.637Z,25.20
2018-05-27T16:01:42.119Z,25.10
2018-05-27T16:04:09.682Z,25.20
2018-05-27T16:06:37.146Z,25.10
2018-05-27T16:09:05.535Z,25.10
2018-05-27T16:11:33.000Z,25.20
2018-05-27T16:14:00.478Z,25.20
2018-05-27T16:16:28.711Z,25.40
2018-05-27T16:18:56.268Z,25.40
2018-05-27T16:21:24.134Z,25.30
2018-05-27T16:23:53.788Z,25.10
2018-05-27T16:26:22.776Z,25.20
2018-05-27T16:28:50.251Z,25.20
2018-05-27T16:31:17.707Z,25.00
2018-05-27T16:33:45.170Z,25.00
2018-05-27T16:36:13.394Z,24.80
2018-05-27T16:38:40.903Z,24.80
2018-05-27T16:41:08.371Z,24.80
2018-05-27T16:43:35.825Z,24.80
2018-05-27T16:46:03.299Z,24.80
2018-05-27T16:48:31.573Z,25.10
2018-05-27T16:50:59.137Z,25.10
2018-05-27T16:53:26.603Z,25.10
2018-05-27T16:55:54.067Z,25.20
2018-05-27T16:58:22.331Z,25.30
2018-05-27T17:00:49.905Z,25.30
2018-05-27T17:03:17.371Z,25.20
2018-05-27T17:05:44.826Z,25.60
2018-05-27T17:08:12.298Z,25.50
2018-05-27T17:10:41.264Z,25.70
2018-05-27T17:13:08.743Z,25.70
2018-05-27T17:15:36.205Z,25.70
2018-05-27T17:18:03.661Z,25.70
2018-05-27T17:20:31.194Z,25.80
2018-05-27T17:22:58.639Z,25.70
2018-05-27T17:25:27.000Z,25.40
2018-05-27T17:27:56.167Z,25.40
2018-05-27T17:30:23.612Z,25.60
2018-05-27T17:32:51.113Z,25.50
2018-05-27T17:35:20.098Z,25.80
2018-05-27T17:37:47.577Z,25.80
2018-05-27T17:40:15.060Z,25.70
2018-05-27T17:42:43.287Z,25.40
2018-05-27T17:45:10.778Z,25.40
2018-05-27T17:47:38.255Z,25.80
2018-05-27T17:50:05.707Z,25.70
2018-05-27T17:52:33.155Z,26.00
2018-05-27T17:55:00.619Z,26.10
2018-05-27T17:57:28.273Z,26.00
2018-05-27T17:59:55.704Z,25.80
2018-05-27T18:02:23.169Z,25.70
2018-05-27T18:04:50.651Z,25.60
2018-05-27T18:07:18.141Z,25.80
2018-05-27T18:09:46.398Z,25.90
2018-05-27T18:12:13.893Z,25.90
2018-05-27T18:14:42.865Z,25.80
2018-05-27T18:17:11.153Z,26.10
2018-05-27T18:19:38.628Z,26.10
2018-05-27T18:22:06.104Z,26.10
2018-05-27T18:24:33.577Z,26.30
2018-05-27T18:27:01.924Z,26.10
2018-05-27T18:29:29.404Z,26.10
2018-05-27T18:31:56.876Z,26.30
2018-05-27T18:34:25.508Z,26.50
2018-05-27T18:36:53.006Z,26.50
2018-05-27T18:39:20.477Z,26.60
2018-05-27T18:41:48.691Z,26.30
2018-05-27T18:44:16.166Z,26.30
2018-05-27T18:46:43.673Z,26.20
2018-05-27T18:49:12.673Z,25.70
2018-05-27T18:51:40.139Z,25.70
2018-05-27T18:54:08.359Z,25.60
2018-05-27T18:56:35.853Z,25.60
2018-05-27T18:59:03.405Z,25.40
2018-05-27T19:01:31.614Z,25.60
2018-05-27T19:03:59.065Z,25.60
2018-05-27T19:06:26.544Z,25.70
2018-05-27T19:08:54.009Z,25.90
2018-05-27T19:11:21.484Z,25.90
2018-05-27T19:13:49.033Z,26.10
2018-05-27T19:16:16.505Z,25.90
2018-05-27T19:18:44.065Z,25.90
2018-05-27T19:21:12.318Z,25.70
2018-05-27T19:23:39.774Z,25.70
2018-05-27T19:26:07.246Z,25.70
2018-05-27T19:28:34.692Z,25.90
2018-05-27T19:31:02.156Z,26.10
2018-05-27T19:33:29.665Z,26.30
2018-05-27T19:35:57.983Z,26.00
2018-05-27T19:38:25.418Z,26.10
2018-05-27T19:40:54.445Z,26.30
2018-05-27T19:43:21.997Z,26.30
2018-05-27T19:45:49.425Z,26.20
2018-05-27T19:48:18.402Z,25.80
2018-05-27T19:50:45.980Z,25.80
2018-05-27T19:53:14.211Z,25.50
2018-05-27T19:55:41.684Z,25.50
2018-05-27T19:58:09.140Z,25.80
2018-05-27T20:00:36.611Z,25.80
2018-05-27T20:03:04.068Z,25.60
2018-05-27T20:05:31.569Z,25.10
2018-05-27T20:07:59.801Z,25.30
2018-05-27T20:10:27.272Z,25.30
2018-05-27T20:12:54.750Z,25.10
2018-05-27T20:15:22.205Z,24.70
2018-05-27T20:17:49.679Z,24.80
2018-05-27T20:20:17.146Z,25.20
2018-05-27T20:22:44.603Z,25.30
2018-05-27T20:25:12.087Z,25.40
2018-05-27T20:27:39.553Z,25.10
2018-05-27T20:30:07.117Z,25.10
2018-05-27T20:32:34.577Z,25.10
2018-05-27T20:35:02.827Z,25.10
2018-05-27T20:37:30.304Z,25.10
2018-05-27T20:39:57.787Z,25.10
2018-05-27T20:42:25.328Z,24.70
2018-05-27T20:44:52.799Z,24.80
2018-05-27T20:47:20.523Z,25.20
2018-05-27T20:49:48.023Z,25.10
2018-05-27T20:52:15.493Z,24.50
2018-05-27T20:54:42.954Z,24.60
2018-05-27T20:57:10.406Z,24.90
2018-05-27T20:59:37.874Z,24.40
2018-05-27T21:02:05.453Z,24.60
2018-05-27T21:04:33.684Z,25.30
2018-05-27T21:07:01.142Z,25.30
2018-05-27T21:09:28.613Z,25.20
2018-05-27T21:11:56.053Z,25.10
2018-05-27T21:14:23.520Z,25.20
2018-05-27T21:16:50.979Z,25.10
2018-05-27T21:19:18.436Z,25.10
2018-05-27T21:21:45.906Z,25.30
2018-05-27T21:24:13.383Z,25.30
2018-05-27T21:26:40.860Z,24.90
2018-05-27T21:29:08.333Z,24.80
2018-05-27T21:31:35.812Z,24.70
2018-05-27T21:34:04.047Z,24.30
2018-05-27T21:36:31.551Z,24.30
2018-05-27T21:38:59.023Z,24.00
2018-05-27T21:41:26.486Z,24.10
2018-05-27T21:43:53.947Z,24.10
2018-05-27T21:46:21.413Z,24.10
2018-05-27T21:48:48.869Z,24.00
2018-05-27T21:51:17.105Z,24.20
2018-05-27T21:53:46.817Z,24.20
2018-05-27T21:56:14.276Z,24.00
2018-05-27T21:58:41.786Z,23.80
2018-05-27T22:01:09.216Z,23.90
2018-05-27T22:03:36.687Z,23.90
2018-05-27T22:06:04.171Z,23.80
2018-05-27T22:08:32.404Z,23.90
2018-05-27T22:10:59.852Z,23.90
2018-05-27T22:13:27.378Z,24.10
2018-05-27T22:15:55.605Z,24.20
2018-05-27T22:18:23.064Z,24.20
2018-05-27T22:20:50.571Z,24.30
2018-05-27T22:23:18.040Z,24.40
2018-05-27T22:25:47.003Z,24.00
2018-05-27T22:28:14.465Z,24.00
2018-05-27T22:30:41.919Z,23.80
2018-05-27T22:33:09.384Z,23.60
2018-05-27T22:35:36.854Z,23.30
2018-05-27T22:38:04.321Z,23.40
2018-05-27T22:40:31.800Z,23.40
2018-05-27T22:42:59.272Z,23.50
2018-05-27T22:45:27.508Z,23.60
2018-05-27T22:47:54.976Z,23.60
2018-05-27T22:50:22.428Z,23.80
2018-05-27T22:52:49.905Z,23.70
2018-05-27T22:55:17.365Z,23.90
2018-05-27T22:57:44.834Z,24.00
2018-05-27T23:00:13.569Z,24.10
2018-05-27T23:02:41.038Z,24.20
2018-05-27T23:05:09.347Z,24.40
2018-05-27T23:07:36.862Z,24.40
2018-05-27T23:10:05.856Z,24.20
2018-05-27T23:12:34.830Z,23.90
2018-05-27T23:15:02.290Z,24.00
2018-05-27T23:17:29.760Z,23.50
2018-05-27T23:19:57.248Z,23.50
2018-05-27T23:22:25.481Z,23.80
2018-05-27T23:24:52.980Z,23.80
2018-05-27T23:27:20.546Z,23.90
2018-05-27T23:29:49.541Z,23.90
2018-05-27T23:32:16.988Z,23.90
2018-05-27T23:34:44.461Z,23.90
2018-05-27T23:37:12.033Z,23.70
2018-05-27T23:39:39.598Z,23.90
2018-05-27T23:42:07.839Z,23.70
2018-05-27T23:44:35.337Z,23.70
2018-05-27T23:47:02.803Z,23.80
2018-05-27T23:49:31.799Z,24.00
2018-05-27T23:51:59.357Z,23.90
2018-05-27T23:54:26.816Z,24.00
2018-05-27T23:56:54.292Z,23.50
2018-05-27T23:59:21.764Z,23.80
